Time;durP1;ratioP1;P1;durP2;ratioP2;P2;SDS_P1;SDS_P2;PMS_P1;PMS_P2;Temp;Humidity;BMP_temperature;BMP_pressure;BME280_temperature;BME280_humidity;BME280_pressure;Samples;Min_cycle;Max_cycle;Signal;HPM_P1;HPM_P2
2022/05/17 00:03:15;;;;;;;5.20;2.70;;;24.40;46.30;;;;;;219870;1271;22573;-71
2022/05/17 00:08:25;;;;;;;10.10;3.00;;;24.40;46.20;;;;;;219735;1271;24659;-68
2022/05/17 00:13:52;;;;;;;12.80;3.60;;;24.40;47.60;;;;;;219847;1273;22595;-68
2022/05/17 00:18:55;;;;;;;11.10;3.40;;;24.30;46.70;;;;;;220099;1272;24267;-68
2022/05/17 00:24:04;;;;;;;6.00;2.50;;;24.40;46.70;;;;;;219858;1271;22647;-68
2022/05/17 00:29:16;;;;;;;9.80;3.00;;;24.30;47.20;;;;;;219743;1273;25286;-68
2022/05/17 00:34:20;;;;;;;7.80;2.60;;;24.30;47.10;;;;;;219984;1271;22538;-68
2022/05/17 00:39:24;;;;;;;5.80;2.60;;;24.30;47.10;;;;;;219961;1271;25635;-69
2022/05/17 00:44:43;;;;;;;7.10;2.70;;;24.30;47.00;;;;;;219736;1271;26797;-68
2022/05/17 00:50:10;;;;;;;7.10;2.40;;;24.30;46.90;;;;;;219704;1272;24339;-70
2022/05/17 00:55:24;;;;;;;6.40;3.00;;;24.30;47.30;;;;;;219555;1273;22560;-69
2022/05/17 01:00:37;;;;;;;5.20;2.80;;;24.30;47.10;;;;;;219829;1273;22560;-68
2022/05/17 01:05:45;;;;;;;7.50;2.80;;;24.30;47.10;;;;;;219675;1271;22728;-68
2022/05/17 01:10:50;;;;;;;9.30;3.20;;;24.30;47.80;;;;;;219854;1272;22565;-67
2022/05/17 01:15:58;;;;;;;6.50;2.60;;;24.30;47.50;;;;;;220052;1271;22799;-69
2022/05/17 01:21:32;;;;;;;4.80;2.40;;;24.30;47.80;;;;;;219874;1273;24349;-70
2022/05/17 01:27:05;;;;;;;3.20;2.00;;;24.30;47.20;;;;;;219693;1273;23950;-69
2022/05/17 01:32:15;;;;;;;6.60;2.90;;;24.30;47.50;;;;;;219976;1273;24335;-70
2022/05/17 01:37:23;;;;;;;8.00;2.70;;;24.30;47.20;;;;;;219859;1271;24323;-71
2022/05/17 01:42:27;;;;;;;5.50;2.30;;;24.30;47.50;;;;;;219701;1271;24236;-70
2022/05/17 01:47:32;;;;;;;5.40;2.10;;;24.20;47.70;;;;;;219935;1270;25313;-68
2022/05/17 01:52:35;;;;;;;5.30;2.20;;;24.30;48.30;;;;;;219936;1273;22590;-70
2022/05/17 01:57:39;;;;;;;11.30;3.30;;;24.20;48.40;;;;;;219959;1270;24506;-68
2022/05/17 02:02:43;;;;;;;8.40;2.90;;;24.20;48.40;;;;;;219897;1270;22673;-67
2022/05/17 02:07:52;;;;;;;7.10;2.60;;;24.20;48.30;;;;;;219971;1270;23899;-67
2022/05/17 02:12:57;;;;;;;6.80;2.80;;;24.20;49.00;;;;;;220065;1270;24329;-69
2022/05/17 02:18:00;;;;;;;7.80;2.80;;;24.20;48.70;;;;;;220119;1271;22560;-68
2022/05/17 02:23:11;;;;;;;7.90;2.70;;;24.20;48.60;;;;;;219643;1270;26686;-68
2022/05/17 02:28:17;;;;;;;3.60;2.00;;;24.20;47.80;;;;;;219793;1271;24292;-68
2022/05/17 02:33:21;;;;;;;6.90;2.70;;;24.20;48.30;;;;;;219785;1271;23758;-69
2022/05/17 02:38:26;;;;;;;7.50;2.80;;;24.20;48.40;;;;;;219700;1273;24442;-69
2022/05/17 02:43:30;;;;;;;8.10;3.00;;;24.20;48.50;;;;;;219773;1273;22556;-68
2022/05/17 02:48:40;;;;;;;14.10;2.80;;;24.10;48.40;;;;;;219786;1273;25338;-68
2022/05/17 02:53:44;;;;;;;3.50;2.00;;;24.10;48.20;;;;;;219480;1273;24429;-70
2022/05/17 02:58:48;;;;;;;3.10;1.80;;;24.10;48.50;;;;;;219614;1273;24526;-69
2022/05/17 03:03:51;;;;;;;4.60;2.00;;;24.10;48.40;;;;;;219774;1273;24428;-69
2022/05/17 03:08:55;;;;;;;3.50;1.90;;;24.10;48.60;;;;;;219907;1272;22574;-67
2022/05/17 03:13:59;;;;;;;8.60;3.00;;;24.10;48.70;;;;;;219824;1271;25262;-68
2022/05/17 03:19:04;;;;;;;3.40;2.00;;;24.10;48.50;;;;;;220038;1273;24238;-69
2022/05/17 03:24:08;;;;;;;7.50;2.80;;;24.10;48.50;;;;;;220113;1273;25635;-69
2022/05/17 03:29:33;;;;;;;4.40;2.20;;;24.10;48.50;;;;;;219929;1273;24278;-68
2022/05/17 03:34:37;;;;;;;4.30;2.10;;;24.10;48.70;;;;;;220103;1273;22618;-69
2022/05/17 03:39:41;;;;;;;4.30;2.00;;;24.10;48.60;;;;;;219954;1273;22556;-67
2022/05/17 03:44:45;;;;;;;6.60;2.30;;;24.10;48.70;;;;;;219665;1271;22814;-69
2022/05/17 03:49:51;;;;;;;11.50;3.20;;;24.10;48.60;;;;;;219686;1270;25326;-69
2022/05/17 03:54:59;;;;;;;6.00;1.90;;;24.00;49.10;;;;;;219644;1271;24555;-70
2022/05/17 04:00:06;;;;;;;6.10;2.00;;;24.10;48.90;;;;;;219884;1273;22695;-68
2022/05/17 04:05:23;;;;;;;4.70;1.80;;;24.10;49.00;;;;;;219784;1273;25451;-69
2022/05/17 04:10:28;;;;;;;4.90;2.10;;;24.10;48.90;;;;;;219925;1273;25537;-68
2022/05/17 04:15:33;;;;;;;6.10;2.40;;;24.10;49.00;;;;;;219822;1270;24444;-69
2022/05/17 04:20:37;;;;;;;7.30;2.30;;;24.10;48.90;;;;;;220077;1272;22550;-69
2022/05/17 04:25:41;;;;;;;5.00;1.90;;;24.00;49.00;;;;;;219991;1271;22527;-68
2022/05/17 04:30:45;;;;;;;3.60;1.80;;;24.00;48.90;;;;;;219923;1272;24001;-67
2022/05/17 04:35:48;;;;;;;5.80;2.10;;;24.00;49.10;;;;;;219847;1273;24426;-69
2022/05/17 04:40:53;;;;;;;10.00;2.60;;;24.00;49.10;;;;;;219930;1273;22624;-68
2022/05/17 04:45:58;;;;;;;9.40;2.80;;;24.00;49.20;;;;;;219794;1273;22571;-67
2022/05/17 04:51:11;;;;;;;8.60;3.00;;;24.00;49.30;;;;;;219889;1271;24317;-67
2022/05/17 04:56:16;;;;;;;6.40;2.50;;;24.00;49.20;;;;;;219944;1273;24254;-69
2022/05/17 05:01:21;;;;;;;6.20;2.30;;;24.00;49.30;;;;;;219958;1270;25339;-68
2022/05/17 05:06:27;;;;;;;7.70;2.50;;;24.00;49.60;;;;;;219913;1271;22700;-69
2022/05/17 05:11:34;;;;;;;3.90;1.80;;;24.00;49.30;;;;;;219502;1273;22630;-68
2022/05/17 05:16:38;;;;;;;5.80;2.20;;;24.00;49.30;;;;;;219969;1271;22755;-68
2022/05/17 05:21:42;;;;;;;11.40;2.90;;;24.00;49.30;;;;;;219841;1271;24257;-68
2022/05/17 05:26:46;;;;;;;4.40;2.10;;;24.00;49.30;;;;;;219807;1270;22849;-69
2022/05/17 05:31:50;;;;;;;4.20;1.90;;;24.00;49.40;;;;;;219787;1271;23752;-69
2022/05/17 05:36:54;;;;;;;9.70;2.60;;;24.00;49.40;;;;;;219982;1270;22535;-70
2022/05/17 05:42:03;;;;;;;6.00;2.20;;;24.00;49.40;;;;;;219822;1271;25400;-69
2022/05/17 05:47:07;;;;;;;7.90;2.40;;;24.00;49.70;;;;;;219937;1270;24249;-69
2022/05/17 05:52:15;;;;;;;5.00;2.00;;;24.00;49.30;;;;;;219696;1270;24416;-68
2022/05/17 05:57:23;;;;;;;3.80;1.80;;;24.00;49.60;;;;;;219749;1271;24293;-68
2022/05/17 06:02:28;;;;;;;6.80;2.10;;;24.00;50.30;;;;;;219566;1271;22804;-67
2022/05/17 06:07:34;;;;;;;8.70;1.80;;;24.10;50.90;;;;;;219954;1271;24155;-67
2022/05/17 06:12:38;;;;;;;6.30;2.00;;;24.10;51.10;;;;;;219914;1271;22561;-67
2022/05/17 06:17:43;;;;;;;5.80;2.10;;;24.10;50.90;;;;;;220022;1271;22802;-67
2022/05/17 06:22:51;;;;;;;6.90;1.90;;;24.10;51.00;;;;;;219842;1273;26345;-59
2022/05/17 06:27:54;;;;;;;11.50;2.50;;;24.10;51.40;;;;;;219968;1271;22604;-57
2022/05/17 06:33:01;;;;;;;9.30;2.30;;;24.20;51.10;;;;;;219785;1271;22802;-60
2022/05/17 06:38:05;;;;;;;14.10;3.10;;;24.20;50.70;;;;;;219934;1271;25456;-60
2022/05/17 06:43:10;;;;;;;14.00;2.50;;;24.10;51.00;;;;;;219817;1271;22594;-62
2022/05/17 06:48:19;;;;;;;11.90;2.70;;;24.20;49.70;;;;;;219942;1271;22561;-58
2022/05/17 06:53:30;;;;;;;6.60;2.70;;;24.20;49.80;;;;;;219823;1271;24303;-56
2022/05/17 06:58:34;;;;;;;13.30;2.90;;;24.20;49.60;;;;;;219535;1272;22740;-58
2022/05/17 07:03:38;;;;;;;11.90;3.00;;;24.10;49.00;;;;;;219893;1272;22558;-59
2022/05/17 07:08:42;;;;;;;10.30;3.20;;;24.10;48.70;;;;;;220082;1272;22735;-59
2022/05/17 07:13:46;;;;;;;10.70;2.50;;;24.10;48.30;;;;;;219943;1271;23635;-59
2022/05/17 07:18:51;;;;;;;7.70;2.40;;;24.10;47.60;;;;;;219126;1273;461270;-57
2022/05/17 07:24:09;;;;;;;7.70;2.70;;;24.10;47.70;;;;;;219904;1271;24445;-61
2022/05/17 07:29:13;;;;;;;10.80;3.00;;;23.90;46.30;;;;;;219664;1271;22557;-59
2022/05/17 07:34:17;;;;;;;12.90;3.30;;;23.80;46.10;;;;;;219854;1271;22556;-61
2022/05/17 07:39:21;;;;;;;11.20;2.80;;;23.50;45.80;;;;;;219411;1273;24302;-59
2022/05/17 07:44:34;;;;;;;7.80;3.10;;;23.50;46.60;;;;;;219746;1271;22585;-57
2022/05/17 07:49:38;;;;;;;12.30;3.30;;;23.60;45.60;;;;;;219496;1273;24247;-61
2022/05/17 07:54:45;;;;;;;8.30;3.60;;;23.50;45.30;;;;;;219727;1271;22617;-59
2022/05/17 07:59:52;;;;;;;15.90;3.70;;;23.50;45.20;;;;;;219603;1273;24484;-58
2022/05/17 08:04:56;;;;;;;12.80;3.70;;;23.30;45.00;;;;;;219678;1271;22560;-58
2022/05/17 08:10:23;;;;;;;;;;;;;;;;;;;;;
2022/05/17 08:15:39;;;;;;;9.50;3.60;;;23.50;44.60;;;;;;219717;1273;22557;-59
2022/05/17 08:20:43;;;;;;;8.80;2.90;;;23.50;44.50;;;;;;219620;1273;25343;-58
2022/05/17 08:31:11;;;;;;;9.10;3.20;;;23.40;44.30;;;;;;219828;1272;25707;-59
2022/05/17 08:36:15;;;;;;;11.60;4.00;;;23.40;44.30;;;;;;219964;1271;25602;-60
2022/05/17 08:41:36;;;;;;;10.00;3.20;;;23.40;44.20;;;;;;220079;1274;25334;-59
2022/05/17 08:47:11;;;;;;;12.20;3.20;;;23.50;44.60;;;;;;220097;1271;25687;-60
2022/05/17 08:52:38;;;;;;;15.50;3.80;;;23.50;44.40;;;;;;219712;1271;22586;-57
2022/05/17 08:58:13;;;;;;;9.10;3.20;;;23.50;44.30;;;;;;219895;1271;24326;-60
2022/05/17 09:03:35;;;;;;;8.00;3.20;;;23.60;44.40;;;;;;219452;1274;22577;-59
2022/05/17 09:08:53;;;;;;;8.30;3.30;;;23.50;44.60;;;;;;219560;1271;24440;-62
2022/05/17 09:14:15;;;;;;;8.40;2.90;;;23.60;44.90;;;;;;219509;1271;22699;-61
2022/05/17 09:19:28;;;;;;;16.10;3.60;;;23.70;44.90;;;;;;219991;1271;22541;-61
2022/05/17 09:24:43;;;;;;;7.00;3.20;;;23.70;45.50;;;;;;219919;1271;24030;-62
2022/05/17 09:29:49;;;;;;;9.10;3.00;;;23.80;46.40;;;;;;219579;1271;22615;-61
2022/05/17 09:35:10;;;;;;;6.40;2.70;;;23.80;46.00;;;;;;219661;1272;26509;-59
2022/05/17 09:40:22;;;;;;;11.40;3.40;;;23.80;46.00;;;;;;219493;1274;24455;-62
2022/05/17 09:45:55;;;;;;;10.80;3.10;;;23.80;45.90;;;;;;219812;1271;25427;-60
2022/05/17 09:56:27;;;;;;;9.10;3.00;;;23.90;47.60;;;;;;219498;1271;25265;-60
2022/05/17 10:01:38;;;;;;;7.00;2.90;;;23.90;48.00;;;;;;219569;1271;22676;-60
2022/05/17 10:06:48;;;;;;;12.40;3.00;;;23.90;47.50;;;;;;219903;1271;24283;-61
2022/05/17 10:11:58;;;;;;;8.60;3.20;;;23.90;47.30;;;;;;220082;1271;25497;-67
2022/05/17 10:17:13;;;;;;;12.90;3.50;;;23.90;48.30;;;;;;219885;1271;22545;-67
2022/05/17 10:22:55;;;;;;;8.80;3.10;;;23.90;48.00;;;;;;219806;1271;24340;-66
2022/05/17 10:28:10;;;;;;;12.20;3.50;;;23.90;48.40;;;;;;219713;1271;22541;-66
2022/05/17 10:33:26;;;;;;;10.60;3.20;;;23.90;49.00;;;;;;219439;1271;22545;-68
2022/05/17 10:38:37;;;;;;;13.20;3.50;;;23.90;48.90;;;;;;219581;1271;24483;-64
2022/05/17 10:43:44;;;;;;;10.40;3.80;;;23.80;49.10;;;;;;219516;1271;22804;-66
2022/05/17 10:48:58;;;;;;;9.60;3.10;;;23.80;49.70;;;;;;219771;1271;22559;-65
2022/05/17 10:54:12;;;;;;;8.90;3.50;;;23.90;50.40;;;;;;219688;1274;24329;-64
2022/05/17 10:59:36;;;;;;;12.10;3.40;;;23.90;50.80;;;;;;219644;1271;22547;-64
2022/05/17 11:05:07;;;;;;;14.90;4.20;;;23.90;51.20;;;;;;220054;1271;24314;-63
2022/05/17 11:10:36;;;;;;;11.60;3.80;;;23.90;51.40;;;;;;219648;1273;22545;-63
2022/05/17 11:15:48;;;;;;;11.70;3.80;;;23.90;51.30;;;;;;219280;1273;22648;-63
2022/05/17 11:21:01;;;;;;;9.60;3.20;;;23.90;51.80;;;;;;219799;1271;22582;-62
2022/05/17 11:26:30;;;;;;;8.50;3.30;;;23.90;52.10;;;;;;219889;1271;25298;-62
2022/05/17 11:32:15;;;;;;;8.90;3.20;;;23.90;52.40;;;;;;219635;1272;22594;-65
2022/05/17 11:37:32;;;;;;;8.10;3.20;;;23.90;53.20;;;;;;219493;1271;22613;-65
2022/05/17 11:43:40;;;;;;;6.20;3.30;;;23.90;53.20;;;;;;219293;1271;24128;-63
2022/05/17 11:48:15;;;;;;;8.60;2.90;;;23.90;52.90;;;;;;219534;1271;25408;-63
2022/05/17 11:53:24;;;;;;;9.20;3.20;;;23.90;53.40;;;;;;219323;1273;23990;-62
2022/05/17 11:58:29;;;;;;;8.90;3.50;;;23.90;53.40;;;;;;219597;1271;22622;-65
2022/05/17 12:03:50;;;;;;;5.80;2.70;;;23.90;53.40;;;;;;219589;1271;22587;-65
2022/05/17 12:08:55;;;;;;;8.90;3.50;;;23.90;53.20;;;;;;219555;1271;24349;-65
2022/05/17 12:14:23;;;;;;;5.40;2.70;;;23.90;53.20;;;;;;219595;1271;24345;-64
2022/05/17 12:19:54;;;;;;;8.70;3.00;;;23.90;52.50;;;;;;219217;1273;25518;-62
2022/05/17 12:25:03;;;;;;;7.60;3.30;;;23.90;52.50;;;;;;219074;1273;24549;-63
2022/05/17 12:35:52;;;;;;;10.10;3.60;;;24.00;52.00;;;;;;219705;1271;23044;-64
2022/05/17 12:46:31;;;;;;;9.10;3.10;;;24.00;52.80;;;;;;219559;1271;25258;-63
2022/05/17 12:51:35;;;;;;;5.20;2.60;;;24.00;52.40;;;;;;219954;1273;22569;-63
2022/05/17 12:56:43;;;;;;;15.10;4.20;;;24.00;52.50;;;;;;219536;1271;24101;-63
2022/05/17 13:01:59;;;;;;;13.80;3.70;;;24.00;52.50;;;;;;219602;1271;23992;-63
2022/05/17 13:07:14;;;;;;;7.20;2.90;;;24.00;52.90;;;;;;219687;1271;26959;-65
2022/05/17 13:12:20;;;;;;;8.40;3.00;;;24.10;52.30;;;;;;219433;1271;22823;-63
2022/05/17 13:17:33;;;;;;;5.80;2.20;;;24.00;52.60;;;;;;219398;1271;25500;-63
2022/05/17 13:22:42;;;;;;;7.30;2.80;;;24.10;52.60;;;;;;219606;1273;23212;-62
2022/05/17 13:27:59;;;;;;;6.60;2.70;;;24.10;52.50;;;;;;219269;1271;22570;-66
2022/05/17 13:33:09;;;;;;;13.00;3.10;;;24.00;52.40;;;;;;219668;1271;24298;-64
2022/05/17 13:38:13;;;;;;;8.40;3.20;;;23.90;50.90;;;;;;219540;1271;22567;-62
2022/05/17 13:43:42;;;;;;;8.70;2.90;;;23.90;50.20;;;;;;219621;1271;26672;-62
2022/05/17 13:48:54;;;;;;;10.60;3.40;;;23.90;49.40;;;;;;219783;1271;22724;-59
2022/05/17 13:54:15;;;;;;;12.90;3.30;;;23.90;47.90;;;;;;219617;1270;22560;-59
2022/05/17 13:59:20;;;;;;;9.40;2.90;;;23.90;47.80;;;;;;219455;1271;24316;-58
2022/05/17 14:04:44;;;;;;;10.30;3.00;;;23.80;46.60;;;;;;219287;1273;22573;-59
2022/05/17 14:15:37;;;;;;;12.50;3.50;;;23.80;45.60;;;;;;219296;1270;22726;-58
2022/05/17 14:20:47;;;;;;;8.70;3.10;;;23.80;45.20;;;;;;219433;1271;22578;-58
2022/05/17 14:25:52;;;;;;;12.60;3.60;;;23.80;44.80;;;;;;219816;1272;22932;-57
2022/05/17 14:31:00;;;;;;;11.00;3.10;;;23.80;44.50;;;;;;220124;1271;24427;-58
2022/05/17 14:36:11;;;;;;;12.70;2.90;;;23.70;44.30;;;;;;222413;1273;23288;-59
2022/05/17 14:41:15;;;;;;;11.50;3.20;;;23.60;44.00;;;;;;219461;1271;22649;-59
2022/05/17 14:46:22;;;;;;;12.20;3.40;;;23.60;43.70;;;;;;219732;1271;23168;-58
2022/05/17 14:51:29;;;;;;;17.30;3.50;;;23.60;43.50;;;;;;219576;1271;22707;-59
2022/05/17 14:56:33;;;;;;;11.10;2.90;;;23.60;43.50;;;;;;219403;1273;22579;-59
2022/05/17 15:01:49;;;;;;;8.80;2.80;;;23.60;43.60;;;;;;219614;1270;24106;-58
2022/05/17 15:06:57;;;;;;;16.00;3.80;;;23.60;43.70;;;;;;219496;1270;23955;-59
2022/05/17 15:12:13;;;;;;;8.10;2.70;;;23.50;43.80;;;;;;219256;1273;23928;-60
2022/05/17 15:17:33;;;;;;;14.70;3.60;;;23.50;44.00;;;;;;219526;1271;22535;-57
2022/05/17 15:22:46;;;;;;;10.30;2.70;;;23.50;43.70;;;;;;219228;1271;25373;-58
2022/05/17 15:28:19;;;;;;;11.50;3.20;;;23.50;43.10;;;;;;218884;1273;24335;-60
2022/05/17 15:33:29;;;;;;;7.30;2.70;;;23.50;42.30;;;;;;219098;1270;22620;-59
2022/05/17 15:38:40;;;;;;;8.90;2.50;;;23.40;42.30;;;;;;219809;1271;24268;-59
2022/05/17 15:43:46;;;;;;;8.60;2.90;;;23.60;43.70;;;;;;219336;1271;26775;-60
2022/05/17 15:54:31;;;;;;;6.90;2.20;;;23.50;41.80;;;;;;219320;1271;26144;-58
2022/05/17 15:59:39;;;;;;;8.10;2.10;;;23.60;42.20;;;;;;219542;1271;25496;-59
2022/05/17 16:04:55;;;;;;;9.00;2.10;;;23.60;41.40;;;;;;219449;1271;25474;-58
2022/05/17 16:10:07;;;;;;;7.00;1.80;;;23.60;40.80;;;;;;219529;1271;22619;-58
2022/05/17 16:15:16;;;;;;;4.30;2.00;;;23.60;40.80;;;;;;219278;1271;22703;-58
2022/05/17 16:20:28;;;;;;;11.90;2.00;;;23.60;39.90;;;;;;219752;1271;22637;-60
2022/05/17 16:25:57;;;;;;;6.60;2.40;;;23.60;39.60;;;;;;219494;1270;24326;-60
2022/05/17 16:31:10;;;;;;;8.70;2.30;;;23.60;40.20;;;;;;219818;1270;25162;-57
2022/05/17 16:36:26;;;;;;;9.40;2.50;;;23.60;41.00;;;;;;219483;1271;22703;-59
2022/05/17 16:41:33;;;;;;;7.70;2.10;;;23.80;40.90;;;;;;219464;1271;22620;-60
2022/05/17 16:46:51;;;;;;;5.20;1.60;;;23.80;41.30;;;;;;219541;1271;22564;-60
2022/05/17 16:51:58;;;;;;;4.50;1.70;;;23.90;41.70;;;;;;219669;1271;22923;-57
2022/05/17 16:57:03;;;;;;;11.20;2.30;;;23.90;41.90;;;;;;219047;1273;22577;-57
2022/05/17 17:02:18;;;;;;;8.00;1.70;;;23.90;42.50;;;;;;219532;1271;25216;-59
2022/05/17 17:07:28;;;;;;;7.10;1.80;;;23.90;42.50;;;;;;219860;1271;23950;-58
2022/05/17 17:13:09;;;;;;;8.90;2.10;;;23.90;42.90;;;;;;219695;1270;22730;-59
2022/05/17 17:19:09;;;;;;;6.50;1.90;;;23.80;43.00;;;;;;219423;1271;23027;-58
2022/05/17 17:24:19;;;;;;;16.70;2.10;;;23.90;43.20;;;;;;219306;1271;22744;-58
2022/05/17 17:29:26;;;;;;;8.00;2.10;;;23.90;44.20;;;;;;219825;1272;24302;-58
2022/05/17 17:39:59;;;;;;;8.10;1.50;;;23.90;44.60;;;;;;219549;1271;22699;-60
2022/05/17 17:45:06;;;;;;;10.20;2.00;;;23.90;44.80;;;;;;219569;1273;22863;-59
2022/05/17 17:50:10;;;;;;;7.30;2.30;;;23.90;44.60;;;;;;219739;1270;24193;-59
2022/05/17 17:55:33;;;;;;;8.30;2.20;;;23.90;44.90;;;;;;219268;1271;22610;-59
2022/05/17 18:00:56;;;;;;;10.20;2.30;;;23.90;45.20;;;;;;219186;1270;24431;-60
2022/05/17 18:06:08;;;;;;;7.60;2.00;;;23.90;45.50;;;;;;219611;1273;22560;-59
2022/05/17 18:11:19;;;;;;;10.30;2.20;;;23.90;45.60;;;;;;219216;1273;24484;-60
2022/05/17 18:16:35;;;;;;;6.70;2.00;;;23.90;45.20;;;;;;219559;1271;23064;-59
2022/05/17 18:22:02;;;;;;;6.70;1.90;;;24.00;45.50;;;;;;219516;1270;23174;-59
2022/05/17 18:27:36;;;;;;;9.40;2.60;;;24.00;45.80;;;;;;219719;1271;25541;-59
2022/05/17 18:32:56;;;;;;;9.00;2.20;;;24.00;45.80;;;;;;219549;1271;22711;-59
2022/05/17 18:38:11;;;;;;;9.20;2.30;;;24.00;46.10;;;;;;219763;1271;24451;-59
2022/05/17 18:43:21;;;;;;;11.80;2.50;;;24.00;46.10;;;;;;219453;1271;24291;-59
2022/05/17 18:48:42;;;;;;;7.80;2.70;;;24.00;46.20;;;;;;219751;1270;26171;-58
2022/05/17 18:53:46;;;;;;;8.40;2.50;;;24.00;46.40;;;;;;219542;1271;22716;-58
2022/05/17 18:58:52;;;;;;;8.00;2.00;;;24.10;46.50;;;;;;219555;1270;25510;-60
2022/05/17 19:04:02;;;;;;;7.60;2.70;;;24.10;46.80;;;;;;219446;1271;22942;-58
2022/05/17 19:14:55;;;;;;;15.90;3.20;;;24.10;47.80;;;;;;219553;1272;25396;-63
2022/05/17 19:20:08;;;;;;;15.80;3.00;;;24.10;47.50;;;;;;219555;1273;235154;-62
2022/05/17 19:25:14;;;;;;;7.80;2.80;;;24.10;48.10;;;;;;219691;1273;22537;-61
2022/05/17 19:30:20;;;;;;;8.80;2.70;;;24.20;47.40;;;;;;219712;1271;24388;-64
2022/05/17 19:35:36;;;;;;;12.00;2.50;;;24.30;47.50;;;;;;219573;1271;22553;-63
2022/05/17 19:40:40;;;;;;;12.60;2.50;;;24.30;47.80;;;;;;219161;1273;26626;-63
2022/05/17 19:45:54;;;;;;;8.20;2.20;;;24.30;47.50;;;;;;219532;1271;22603;-64
2022/05/17 19:50:58;;;;;;;7.40;2.70;;;24.30;46.70;;;;;;219787;1274;23481;-62
2022/05/17 19:56:02;;;;;;;12.50;3.20;;;24.30;46.70;;;;;;219528;1273;22542;-62
2022/05/17 20:01:07;;;;;;;6.70;2.50;;;24.30;46.60;;;;;;219653;1273;24709;-62
2022/05/17 20:06:11;;;;;;;17.60;4.10;;;24.20;46.10;;;;;;219930;1273;23164;-69
2022/05/17 20:11:15;;;;;;;12.60;3.00;;;24.20;46.80;;;;;;219631;1271;22547;-66
2022/05/17 20:16:23;;;;;;;15.20;3.00;;;24.10;46.80;;;;;;219581;1273;22556;-66
2022/05/17 20:21:33;;;;;;;11.00;3.40;;;24.10;46.90;;;;;;219747;1271;23470;-68
2022/05/17 20:26:44;;;;;;;10.90;2.70;;;24.10;46.90;;;;;;219507;1272;22544;-68
2022/05/17 20:31:58;;;;;;;9.70;3.00;;;24.10;47.20;;;;;;219510;1272;22547;-67
2022/05/17 20:37:12;;;;;;;16.10;3.70;;;24.10;49.60;;;;;;219437;1271;23992;-66
2022/05/17 20:42:16;;;;;;;15.80;3.40;;;24.10;50.40;;;;;;219422;1273;24937;-67
2022/05/17 20:52:52;;;;;;;14.20;3.90;;;23.90;49.10;;;;;;219577;1271;24445;-66
2022/05/17 20:58:00;;;;;;;10.20;2.90;;;23.90;48.30;;;;;;219557;1270;22709;-67
2022/05/17 21:03:11;;;;;;;13.80;3.00;;;23.90;47.90;;;;;;219855;1271;22717;-69
2022/05/17 21:08:18;;;;;;;9.50;3.30;;;23.90;49.90;;;;;;219807;1272;24251;-66
2022/05/17 21:14:14;;;;;;;17.10;3.50;;;23.90;49.80;;;;;;219655;1271;24442;-66
2022/05/17 21:19:45;;;;;;;9.10;2.70;;;23.90;49.20;;;;;;219354;1273;25327;-70
2022/05/17 21:25:11;;;;;;;7.80;2.60;;;23.90;48.80;;;;;;219333;1271;22733;-73
2022/05/17 21:30:45;;;;;;;;;;;;;;;;;;;;;
2022/05/17 21:36:05;;;;;;;10.80;3.20;;;23.90;48.20;;;;;;219842;1273;23919;-69
2022/05/17 21:41:51;;;;;;;11.70;3.60;;;23.80;48.00;;;;;;219776;1273;22734;-67
2022/05/17 21:47:30;;;;;;;5.80;2.10;;;23.80;47.60;;;;;;219644;1272;24441;-74
2022/05/17 21:52:40;;;;;;;8.20;2.30;;;23.80;47.30;;;;;;219608;1270;24333;-70
2022/05/17 21:58:15;;;;;;;11.30;2.90;;;23.80;46.70;;;;;;219886;1271;24459;-75
2022/05/17 22:03:47;;;;;;;10.10;2.80;;;23.80;47.00;;;;;;219533;1272;28032;-69
2022/05/17 22:09:12;;;;;;;5.80;2.50;;;23.70;46.50;;;;;;219536;1273;25931;-65
2022/05/17 22:14:28;;;;;;;8.10;1.90;;;23.80;45.90;;;;;;219608;1272;22666;-69
2022/05/17 22:20:03;;;;;;;7.10;2.20;;;23.80;45.50;;;;;;219668;1271;22839;-70
2022/05/17 22:25:28;;;;;;;10.40;2.60;;;23.80;45.00;;;;;;219917;1271;22559;-69
2022/05/17 22:30:37;;;;;;;9.00;2.00;;;23.70;45.00;;;;;;219870;1272;22663;-67
2022/05/17 22:35:47;;;;;;;7.40;2.20;;;23.70;44.90;;;;;;219294;1273;22551;-71
2022/05/17 22:40:56;;;;;;;4.50;1.70;;;23.70;44.70;;;;;;219861;1271;22556;-68
2022/05/17 22:51:23;;;;;;;11.30;2.60;;;23.70;44.50;;;;;;219636;1271;24327;-68
2022/05/17 22:56:29;;;;;;;14.70;2.30;;;23.70;44.80;;;;;;219821;1271;24201;-69
2022/05/17 23:01:35;;;;;;;7.30;2.00;;;23.70;45.20;;;;;;219681;1271;22603;-68
2022/05/17 23:06:39;;;;;;;3.60;1.80;;;23.70;45.30;;;;;;219611;1271;26541;-67
2022/05/17 23:11:42;;;;;;;25.80;4.80;;;23.60;46.00;;;;;;219820;1271;24294;-68
2022/05/17 23:16:47;;;;;;;9.00;2.50;;;23.60;45.80;;;;;;219706;1271;22733;-67
2022/05/17 23:21:51;;;;;;;14.30;3.00;;;23.60;45.90;;;;;;220049;1272;23185;-69
2022/05/17 23:32:22;;;;;;;7.50;2.10;;;23.60;46.40;;;;;;220014;1273;23191;-66
2022/05/17 23:37:32;;;;;;;6.70;2.10;;;23.60;46.60;;;;;;219967;1271;23046;-69
2022/05/17 23:42:41;;;;;;;6.70;2.10;;;23.60;46.70;;;;;;219656;1272;24136;-68
2022/05/17 23:47:55;;;;;;;8.90;2.80;;;23.50;47.10;;;;;;219701;1273;22620;-68
2022/05/17 23:52:59;;;;;;;4.20;1.90;;;23.50;46.90;;;;;;219584;1271;24630;-69
2022/05/17 23:58:04;;;;;;;6.60;2.40;;;23.50;47.10;;;;;;219818;1272;22553;-68
